POGODA: Poland

Lotnisko: Warszawa-Okecie

METAR KOD: EPWA


METAR: EPWA 200000Z 11012KT 9999 BKN023 13/09 Q1016 NOSIG


BLOK
Pogoda METAR
200000Z
Dzien: 20, Godzina: 00:00 UTC.
11012KT
Wiatr z kierunku 110, o predkosci 22 km/h
9999
Widzialnosc pozioma ponad 10 km.
BKN023
5/8 - 7/8 pokrycia nieba, chmurami o podstawie: 690 metrow
13/09
Temperatura: powietrze 13°C, punkt rosy 9°C . Wilgotnosc wzgledna 69 %
Q1016
Cisnienie: 1016 hPa
NOSIG
Pogoda bedzie bez zmian

Pogoda na innym lotnisku

Pogoda Gdansk-Rebiechowo WEATHER Poland  
Pogoda Katowice WEATHER Poland  
Pogoda Krakow WEATHER Poland  
Pogoda Poznan WEATHER Poland  
Pogoda Rzeszow-Jasionka WEATHER Poland  
Pogoda Szczecin WEATHER Poland  
Pogoda Warszawa-Okecie WEATHER Poland  
Pogoda Wroclaw Ii WEATHER Poland  

Pogoda w inny kraju

Strona startowa

(C) by GREGOR 2007
Ogłoszenia Towarzyskie